sensor_id;sensor_type;location;lat;lon;timestamp;pressure;altitude;pressure_sealevel;temperature;humidity
62011;BME280;47967;51.756;10.174;2023-01-28T05:02:32;100881.63;;;1.43;65.73
62011;BME280;47967;51.756;10.174;2023-01-28T05:06:36;100892.94;;;1.34;65.94
62011;BME280;47967;51.756;10.174;2023-01-28T05:10:46;100899.09;;;1.34;65.69
62011;BME280;47967;51.756;10.174;2023-01-28T05:14:48;100900.06;;;1.33;65.55
62011;BME280;47967;51.756;10.174;2023-01-28T05:18:55;100899.09;;;1.34;65.86
62011;BME280;47967;51.756;10.174;2023-01-28T05:22:57;100902.75;;;1.20;66.19
62011;BME280;47967;51.756;10.174;2023-01-28T05:27:09;100909.25;;;1.16;65.92
62011;BME280;47967;51.756;10.174;2023-01-28T05:31:11;100906.25;;;1.21;66.41
62011;BME280;47967;51.756;10.174;2023-01-28T05:35:16;100917.06;;;1.31;66.07
62011;BME280;47967;51.756;10.174;2023-01-28T05:39:19;100915.72;;;1.25;65.87
62011;BME280;47967;51.756;10.174;2023-01-28T05:43:22;100915.03;;;1.34;66.20
62011;BME280;47967;51.756;10.174;2023-01-28T05:47:45;100910.53;;;1.23;66.20
62011;BME280;47967;51.756;10.174;2023-01-28T05:52:01;100919.22;;;1.25;66.60
62011;BME280;47967;51.756;10.174;2023-01-28T05:56:05;100915.41;;;1.17;66.46
62011;BME280;47967;51.756;10.174;2023-01-28T06:00:11;100914.59;;;1.03;65.20
62011;BME280;47967;51.756;10.174;2023-01-28T06:04:17;100918.31;;;1.14;64.78
62011;BME280;47967;51.756;10.174;2023-01-28T06:08:21;100911.63;;;1.08;65.05
62011;BME280;47967;51.756;10.174;2023-01-28T06:12:24;100925.31;;;1.15;65.06
62011;BME280;47967;51.756;10.174;2023-01-28T06:16:47;100923.00;;;0.97;65.03
62011;BME280;47967;51.756;10.174;2023-01-28T06:21:02;100926.06;;;1.04;65.35
62011;BME280;47967;51.756;10.174;2023-01-28T06:25:07;100935.75;;;1.05;65.82
62011;BME280;47967;51.756;10.174;2023-01-28T06:29:10;100940.97;;;1.06;65.96
62011;BME280;47967;51.756;10.174;2023-01-28T06:33:12;100945.53;;;1.04;65.42
62011;BME280;47967;51.756;10.174;2023-01-28T06:37:15;100939.78;;;0.98;65.04
62011;BME280;47967;51.756;10.174;2023-01-28T06:41:19;100943.00;;;1.03;64.44
62011;BME280;47967;51.756;10.174;2023-01-28T06:45:21;100938.00;;;0.98;64.36
62011;BME280;47967;51.756;10.174;2023-01-28T06:49:24;100940.78;;;0.97;64.94
62011;BME280;47967;51.756;10.174;2023-01-28T06:53:26;100942.03;;;0.91;64.55
62011;BME280;47967;51.756;10.174;2023-01-28T06:57:31;100937.38;;;0.94;64.65
62011;BME280;47967;51.756;10.174;2023-01-28T07:01:34;100938.00;;;0.85;64.51
62011;BME280;47967;51.756;10.174;2023-01-28T07:05:36;100944.69;;;0.91;63.66
62011;BME280;47967;51.756;10.174;2023-01-28T07:09:39;100943.44;;;0.84;62.99
62011;BME280;47967;51.756;10.174;2023-01-28T07:13:43;100945.53;;;0.91;63.11
62011;BME280;47967;51.756;10.174;2023-01-28T07:17:47;100944.47;;;1.07;63.16
62011;BME280;47967;51.756;10.174;2023-01-28T07:21:50;100941.47;;;1.11;62.76
62011;BME280;47967;51.756;10.174;2023-01-28T07:25:52;100942.50;;;1.22;62.75
62011;BME280;47967;51.756;10.174;2023-01-28T07:29:56;100945.91;;;1.24;63.23
62011;BME280;47967;51.756;10.174;2023-01-28T07:33:59;100934.66;;;1.20;63.54
62011;BME280;47967;51.756;10.174;2023-01-28T07:38:01;100932.75;;;1.22;63.13
62011;BME280;47967;51.756;10.174;2023-01-28T07:42:04;100944.50;;;1.31;62.75
62011;BME280;47967;51.756;10.174;2023-01-28T07:46:12;100944.84;;;1.26;62.50
62011;BME280;47967;51.756;10.174;2023-01-28T07:50:15;100952.31;;;1.21;62.51
62011;BME280;47967;51.756;10.174;2023-01-28T07:54:18;100944.59;;;1.05;63.12
62011;BME280;47967;51.756;10.174;2023-01-28T07:58:20;100943.38;;;1.09;62.27
62011;BME280;47967;51.756;10.174;2023-01-28T08:02:24;100949.09;;;1.29;62.55
62011;BME280;47967;51.756;10.174;2023-01-28T08:06:27;100951.75;;;1.29;62.59
62011;BME280;47967;51.756;10.174;2023-01-28T08:10:29;100957.94;;;1.30;62.33
62011;BME280;47967;51.756;10.174;2023-01-28T08:14:32;100962.50;;;1.15;61.77
62011;BME280;47967;51.756;10.174;2023-01-28T08:18:36;100971.03;;;0.94;61.46
62011;BME280;47967;51.756;10.174;2023-01-28T08:22:38;100980.84;;;0.93;61.04
62011;BME280;47967;51.756;10.174;2023-01-28T08:26:41;100975.38;;;1.21;61.24
62011;BME280;47967;51.756;10.174;2023-01-28T08:30:45;100969.66;;;1.51;59.99
62011;BME280;47967;51.756;10.174;2023-01-28T08:34:50;100972.13;;;1.79;59.88
62011;BME280;47967;51.756;10.174;2023-01-28T08:38:52;100980.75;;;1.69;59.89
62011;BME280;47967;51.756;10.174;2023-01-28T08:42:55;100984.63;;;1.65;60.42
62011;BME280;47967;51.756;10.174;2023-01-28T08:46:58;100994.06;;;1.69;60.45
62011;BME280;47967;51.756;10.174;2023-01-28T08:51:03;101008.31;;;1.31;60.90
62011;BME280;47967;51.756;10.174;2023-01-28T08:55:06;101019.72;;;1.33;61.41
62011;BME280;47967;51.756;10.174;2023-01-28T08:59:09;101009.47;;;1.40;61.47
62011;BME280;47967;51.756;10.174;2023-01-28T09:03:11;101015.53;;;1.42;61.40
62011;BME280;47967;51.756;10.174;2023-01-28T09:07:18;101020.16;;;1.27;60.93
62011;BME280;47967;51.756;10.174;2023-01-28T09:11:20;101020.22;;;1.38;60.86
62011;BME280;47967;51.756;10.174;2023-01-28T09:15:23;101036.56;;;1.58;60.43
62011;BME280;47967;51.756;10.174;2023-01-28T09:19:25;101035.72;;;1.82;60.29
62011;BME280;47967;51.756;10.174;2023-01-28T09:23:33;101043.56;;;1.96;59.82
62011;BME280;47967;51.756;10.174;2023-01-28T09:27:35;101057.16;;;2.29;59.33
62011;BME280;47967;51.756;10.174;2023-01-28T09:31:39;101051.97;;;2.27;58.60
62011;BME280;47967;51.756;10.174;2023-01-28T09:35:42;101063.81;;;2.59;57.94
62011;BME280;47967;51.756;10.174;2023-01-28T09:39:46;101061.13;;;2.47;58.21
62011;BME280;47967;51.756;10.174;2023-01-28T09:44:04;101063.88;;;2.10;58.10
62011;BME280;47967;51.756;10.174;2023-01-28T09:48:12;101060.91;;;2.02;58.05
62011;BME280;47967;51.756;10.174;2023-01-28T09:52:17;101071.81;;;1.86;58.00
62011;BME280;47967;51.756;10.174;2023-01-28T09:56:25;101059.22;;;2.25;57.83
62011;BME280;47967;51.756;10.174;2023-01-28T10:00:36;101065.81;;;2.19;57.38
62011;BME280;47967;51.756;10.174;2023-01-28T10:04:49;101068.72;;;2.76;57.29
62011;BME280;47967;51.756;10.174;2023-01-28T10:09:17;101073.31;;;3.21;56.15
62011;BME280;47967;51.756;10.174;2023-01-28T10:13:29;101065.03;;;3.69;55.48
62011;BME280;47967;51.756;10.174;2023-01-28T10:17:41;101057.50;;;4.30;54.56
62011;BME280;47967;51.756;10.174;2023-01-28T10:21:48;101068.09;;;4.09;52.47
62011;BME280;47967;51.756;10.174;2023-01-28T10:25:54;101076.88;;;3.99;53.95
62011;BME280;47967;51.756;10.174;2023-01-28T10:30:15;101056.44;;;4.10;53.75
62011;BME280;47967;51.756;10.174;2023-01-28T10:34:18;101068.00;;;4.43;53.58
62011;BME280;47967;51.756;10.174;2023-01-28T10:38:23;101060.88;;;3.99;52.80
62011;BME280;47967;51.756;10.174;2023-01-28T10:42:29;101049.72;;;3.94;54.11
62011;BME280;47967;51.756;10.174;2023-01-28T10:46:35;101053.09;;;4.08;54.54
62011;BME280;47967;51.756;10.174;2023-01-28T10:50:48;101055.09;;;3.72;53.71
62011;BME280;47967;51.756;10.174;2023-01-28T10:54:58;101052.28;;;3.73;53.76
62011;BME280;47967;51.756;10.174;2023-01-28T10:59:03;101051.53;;;2.92;54.53
62011;BME280;47967;51.756;10.174;2023-01-28T11:03:16;101051.44;;;3.04;54.71
62011;BME280;47967;51.756;10.174;2023-01-28T11:07:20;101049.13;;;3.00;56.21
62011;BME280;47967;51.756;10.174;2023-01-28T11:11:23;101048.56;;;3.53;55.92
62011;BME280;47967;51.756;10.174;2023-01-28T11:15:26;101044.53;;;3.59;54.21
62011;BME280;47967;51.756;10.174;2023-01-28T11:19:33;101043.69;;;3.69;54.25
62011;BME280;47967;51.756;10.174;2023-01-28T11:23:46;101028.75;;;3.67;54.73
62011;BME280;47967;51.756;10.174;2023-01-28T11:27:51;101025.50;;;3.63;54.99
62011;BME280;47967;51.756;10.174;2023-01-28T11:31:57;101022.25;;;3.03;55.51
62011;BME280;47967;51.756;10.174;2023-01-28T11:36:07;101024.72;;;2.70;57.22
62011;BME280;47967;51.756;10.174;2023-01-28T11:40:15;101023.69;;;2.49;57.82
62011;BME280;47967;51.756;10.174;2023-01-28T11:44:24;101022.38;;;2.43;58.72
62011;BME280;47967;51.756;10.174;2023-01-28T11:48:33;101026.00;;;2.18;59.21
62011;BME280;47967;51.756;10.174;2023-01-28T11:52:49;101023.22;;;2.19;60.02
62011;BME280;47967;51.756;10.174;2023-01-28T11:57:17;101036.03;;;1.90;60.16
62011;BME280;47967;51.756;10.174;2023-01-28T12:01:23;101039.91;;;1.86;61.41
62011;BME280;47967;51.756;10.174;2023-01-28T12:05:40;101031.91;;;1.86;61.70
62011;BME280;47967;51.756;10.174;2023-01-28T12:09:54;101015.03;;;1.98;61.87
62011;BME280;47967;51.756;10.174;2023-01-28T12:14:04;101016.78;;;1.86;62.00
62011;BME280;47967;51.756;10.174;2023-01-28T12:18:18;101012.75;;;2.05;61.94
62011;BME280;47967;51.756;10.174;2023-01-28T12:22:41;101010.50;;;2.12;61.20
62011;BME280;47967;51.756;10.174;2023-01-28T12:26:55;101009.00;;;2.32;60.26
62011;BME280;47967;51.756;10.174;2023-01-28T12:31:06;101013.13;;;2.00;60.08
62011;BME280;47967;51.756;10.174;2023-01-28T12:35:33;101003.13;;;2.15;61.18
62011;BME280;47967;51.756;10.174;2023-01-28T12:39:54;101009.56;;;2.24;60.18
62011;BME280;47967;51.756;10.174;2023-01-28T12:44:04;100999.59;;;2.15;60.09
62011;BME280;47967;51.756;10.174;2023-01-28T12:48:12;100996.28;;;2.35;60.06
62011;BME280;47967;51.756;10.174;2023-01-28T12:52:18;100982.78;;;2.50;59.79
62011;BME280;47967;51.756;10.174;2023-01-28T12:56:28;100988.22;;;2.48;58.82
62011;BME280;47967;51.756;10.174;2023-01-28T13:00:35;100985.25;;;2.64;58.84
62011;BME280;47967;51.756;10.174;2023-01-28T13:04:41;100971.34;;;2.95;58.22
62011;BME280;47967;51.756;10.174;2023-01-28T13:08:46;100975.09;;;3.03;56.71
62011;BME280;47967;51.756;10.174;2023-01-28T13:12:51;100966.38;;;3.13;56.27
62011;BME280;47967;51.756;10.174;2023-01-28T13:16:56;100967.59;;;2.97;56.21
62011;BME280;47967;51.756;10.174;2023-01-28T13:20:59;100972.91;;;2.97;56.55
62011;BME280;47967;51.756;10.174;2023-01-28T13:25:18;100971.91;;;2.76;57.40
62011;BME280;47967;51.756;10.174;2023-01-28T13:29:32;100952.56;;;2.74;56.10
62011;BME280;47967;51.756;10.174;2023-01-28T13:33:37;100951.31;;;3.23;56.52
62011;BME280;47967;51.756;10.174;2023-01-28T13:37:44;100924.34;;;3.60;54.74
62011;BME280;47967;51.756;10.174;2023-01-28T13:41:48;100925.53;;;4.00;54.67
62011;BME280;47967;51.756;10.174;2023-01-28T13:45:57;100901.56;;;3.89;54.86
62011;BME280;47967;51.756;10.174;2023-01-28T13:50:03;100891.53;;;3.81;55.06
62011;BME280;47967;51.756;10.174;2023-01-28T13:54:13;100894.88;;;3.62;55.60
62011;BME280;47967;51.756;10.174;2023-01-28T14:03:36;100916.50;;;3.47;56.34
62011;BME280;47967;51.756;10.174;2023-01-28T14:08:06;100940.53;;;3.80;54.96
62011;BME280;47967;51.756;10.174;2023-01-28T14:12:57;100942.47;;;3.78;54.27
62011;BME280;47967;51.756;10.174;2023-01-28T14:17:10;100938.72;;;3.25;54.99
62011;BME280;47967;51.756;10.174;2023-01-28T14:21:19;100926.00;;;3.29;55.30
62011;BME280;47967;51.756;10.174;2023-01-28T14:25:28;100946.03;;;3.00;55.74
62011;BME280;47967;51.756;10.174;2023-01-28T14:29:45;100943.69;;;2.84;57.07
62011;BME280;47967;51.756;10.174;2023-01-28T14:33:48;100948.19;;;2.72;56.52
62011;BME280;47967;51.756;10.174;2023-01-28T14:37:53;100950.13;;;2.82;56.52
62011;BME280;47967;51.756;10.174;2023-01-28T14:41:58;100963.97;;;2.98;56.60
62011;BME280;47967;51.756;10.174;2023-01-28T14:46:11;100965.03;;;2.96;56.12
62011;BME280;47967;51.756;10.174;2023-01-28T14:50:24;100971.59;;;3.03;56.17
62011;BME280;47967;51.756;10.174;2023-01-28T14:54:40;100969.75;;;3.15;56.01
62011;BME280;47967;51.756;10.174;2023-01-28T14:58:51;100964.09;;;2.97;56.40
62011;BME280;47967;51.756;10.174;2023-01-28T15:02:55;100982.59;;;2.29;57.63
62011;BME280;47967;51.756;10.174;2023-01-28T15:07:05;100972.50;;;2.10;58.30
62011;BME280;47967;51.756;10.174;2023-01-28T15:11:20;100955.56;;;2.11;58.50
62011;BME280;47967;51.756;10.174;2023-01-28T15:15:28;100967.72;;;1.90;58.49
62011;BME280;47967;51.756;10.174;2023-01-28T15:19:33;100956.28;;;1.77;58.98
62011;BME280;47967;51.756;10.174;2023-01-28T15:23:38;100955.53;;;1.75;58.36
62011;BME280;47967;51.756;10.174;2023-01-28T15:27:43;100937.56;;;1.66;59.20
62011;BME280;47967;51.756;10.174;2023-01-28T15:31:47;100940.50;;;1.50;59.97
62011;BME280;47967;51.756;10.174;2023-01-28T15:35:51;100952.09;;;1.49;59.92
62011;BME280;47967;51.756;10.174;2023-01-28T15:40:00;100958.78;;;1.67;59.93
62011;BME280;47967;51.756;10.174;2023-01-28T15:44:15;100973.19;;;1.52;60.48
62011;BME280;47967;51.756;10.174;2023-01-28T15:48:18;100976.84;;;1.25;60.31
62011;BME280;47967;51.756;10.174;2023-01-28T15:52:28;100983.00;;;1.25;60.42
62011;BME280;47967;51.756;10.174;2023-01-28T15:56:32;100988.38;;;1.13;61.28
62011;BME280;47967;51.756;10.174;2023-01-28T16:00:37;100978.28;;;0.92;62.10
62011;BME280;47967;51.756;10.174;2023-01-28T16:04:39;100986.03;;;0.95;62.72
62011;BME280;47967;51.756;10.174;2023-01-28T16:08:46;101004.22;;;0.75;64.59
62011;BME280;47967;51.756;10.174;2023-01-28T16:12:54;101007.50;;;0.53;65.09
62011;BME280;47967;51.756;10.174;2023-01-28T16:17:00;100988.97;;;0.39;65.47
62011;BME280;47967;51.756;10.174;2023-01-28T16:21:04;100977.59;;;0.24;67.04
62011;BME280;47967;51.756;10.174;2023-01-28T16:25:26;100972.88;;;0.02;68.38
62011;BME280;47967;51.756;10.174;2023-01-28T16:29:29;100977.69;;;-0.18;69.20
62011;BME280;47967;51.756;10.174;2023-01-28T16:33:33;100985.03;;;-0.36;69.79
62011;BME280;47967;51.756;10.174;2023-01-28T16:37:36;100989.06;;;-0.58;71.00
62011;BME280;47967;51.756;10.174;2023-01-28T16:41:43;100997.13;;;-0.74;70.92
62011;BME280;47967;51.756;10.174;2023-01-28T16:45:46;101027.34;;;-0.76;71.16
62011;BME280;47967;51.756;10.174;2023-01-28T16:49:50;101039.25;;;-0.84;71.19
62011;BME280;47967;51.756;10.174;2023-01-28T16:53:53;101038.88;;;-0.92;70.81
62011;BME280;47967;51.756;10.174;2023-01-28T16:57:56;101035.56;;;-0.95;71.26
62011;BME280;47967;51.756;10.174;2023-01-28T17:01:59;101043.41;;;-1.08;71.79
62011;BME280;47967;51.756;10.174;2023-01-28T17:06:03;101031.63;;;-1.33;71.66
62011;BME280;47967;51.756;10.174;2023-01-28T17:10:07;101030.28;;;-1.40;72.31
62011;BME280;47967;51.756;10.174;2023-01-28T17:14:10;101016.31;;;-1.42;71.94
62011;BME280;47967;51.756;10.174;2023-01-28T17:18:13;101030.66;;;-1.61;72.58
62011;BME280;47967;51.756;10.174;2023-01-28T17:22:17;101030.41;;;-1.72;72.75
62011;BME280;47967;51.756;10.174;2023-01-28T17:26:19;101030.94;;;-1.82;73.44
62011;BME280;47967;51.756;10.174;2023-01-28T17:30:22;101046.16;;;-1.85;74.65
62011;BME280;47967;51.756;10.174;2023-01-28T17:34:24;101046.22;;;-1.87;75.20
62011;BME280;47967;51.756;10.174;2023-01-28T17:38:28;101041.25;;;-1.77;74.88
62011;BME280;47967;51.756;10.174;2023-01-28T17:42:31;101050.53;;;-1.70;75.33
62011;BME280;47967;51.756;10.174;2023-01-28T17:46:34;101064.69;;;-2.01;74.82
62011;BME280;47967;51.756;10.174;2023-01-28T17:50:37;101055.88;;;-2.18;75.32
62011;BME280;47967;51.756;10.174;2023-01-28T17:54:41;101055.53;;;-2.28;75.67
62011;BME280;47967;51.756;10.174;2023-01-28T17:58:48;101061.88;;;-2.30;75.71
62011;BME280;47967;51.756;10.174;2023-01-28T18:02:52;101057.06;;;-2.39;76.19
62011;BME280;47967;51.756;10.174;2023-01-28T18:06:54;101052.31;;;-2.49;76.21
62011;BME280;47967;51.756;10.174;2023-01-28T18:10:58;101056.91;;;-2.52;76.90
62011;BME280;47967;51.756;10.174;2023-01-28T18:15:04;101048.44;;;-2.59;77.01
62011;BME280;47967;51.756;10.174;2023-01-28T18:19:08;101058.16;;;-2.60;77.07
62011;BME280;47967;51.756;10.174;2023-01-28T18:23:10;101062.09;;;-2.51;77.34
62011;BME280;47967;51.756;10.174;2023-01-28T18:27:15;101063.03;;;-2.52;76.48
62011;BME280;47967;51.756;10.174;2023-01-28T18:31:18;101051.88;;;-2.41;76.58
62011;BME280;47967;51.756;10.174;2023-01-28T18:35:21;101077.53;;;-2.43;76.85
62011;BME280;47967;51.756;10.174;2023-01-28T18:39:25;101081.53;;;-2.36;77.19
62011;BME280;47967;51.756;10.174;2023-01-28T18:43:32;101079.84;;;-2.37;76.40
62011;BME280;47967;51.756;10.174;2023-01-28T18:47:35;101072.69;;;-2.35;76.52
62011;BME280;47967;51.756;10.174;2023-01-28T18:51:38;101067.13;;;-2.46;76.57
62011;BME280;47967;51.756;10.174;2023-01-28T18:55:40;101081.50;;;-2.68;76.66
62011;BME280;47967;51.756;10.174;2023-01-28T18:59:46;101066.72;;;-2.88;76.69
62011;BME280;47967;51.756;10.174;2023-01-28T19:03:49;101073.69;;;-2.87;77.11
62011;BME280;47967;51.756;10.174;2023-01-28T19:07:51;101074.31;;;-2.82;77.36
62011;BME280;47967;51.756;10.174;2023-01-28T19:11:54;101087.19;;;-2.76;77.59
62011;BME280;47967;51.756;10.174;2023-01-28T19:16:01;101104.66;;;-2.73;77.64
62011;BME280;47967;51.756;10.174;2023-01-28T19:20:05;101119.41;;;-2.69;77.46
62011;BME280;47967;51.756;10.174;2023-01-28T19:24:10;101099.38;;;-2.73;77.53
62011;BME280;47967;51.756;10.174;2023-01-28T19:28:14;101115.38;;;-2.76;77.91
62011;BME280;47967;51.756;10.174;2023-01-28T19:32:18;101105.44;;;-2.71;77.80
62011;BME280;47967;51.756;10.174;2023-01-28T19:36:21;101098.94;;;-2.81;78.21
62011;BME280;47967;51.756;10.174;2023-01-28T19:40:23;101100.88;;;-2.85;77.74
62011;BME280;47967;51.756;10.174;2023-01-28T19:44:26;101108.97;;;-2.88;77.96
62011;BME280;47967;51.756;10.174;2023-01-28T19:48:31;101108.66;;;-2.99;77.94
62011;BME280;47967;51.756;10.174;2023-01-28T19:52:33;101109.47;;;-3.15;78.11
62011;BME280;47967;51.756;10.174;2023-01-28T19:56:36;101105.66;;;-3.27;78.51
62011;BME280;47967;51.756;10.174;2023-01-28T20:00:39;101096.34;;;-3.34;78.35
62011;BME280;47967;51.756;10.174;2023-01-28T20:04:43;101098.28;;;-3.38;78.58
62011;BME280;47967;51.756;10.174;2023-01-28T20:09:03;101095.38;;;-3.50;79.48
62011;BME280;47967;51.756;10.174;2023-01-28T20:13:06;101095.69;;;-3.57;79.42
62011;BME280;47967;51.756;10.174;2023-01-28T20:17:09;101101.91;;;-3.58;79.60
62011;BME280;47967;51.756;10.174;2023-01-28T20:21:12;101094.78;;;-3.56;80.08
62011;BME280;47967;51.756;10.174;2023-01-28T20:25:15;101085.44;;;-3.63;79.79
62011;BME280;47967;51.756;10.174;2023-01-28T20:29:18;101082.75;;;-3.61;80.36
62011;BME280;47967;51.756;10.174;2023-01-28T20:33:22;101072.75;;;-3.55;80.06
62011;BME280;47967;51.756;10.174;2023-01-28T20:37:26;101075.06;;;-3.48;80.31
62011;BME280;47967;51.756;10.174;2023-01-28T20:41:29;101082.69;;;-3.60;79.88
62011;BME280;47967;51.756;10.174;2023-01-28T20:45:32;101068.22;;;-3.70;79.78
62011;BME280;47967;51.756;10.174;2023-01-28T20:49:34;101070.22;;;-3.75;80.04
62011;BME280;47967;51.756;10.174;2023-01-28T20:53:39;101065.75;;;-3.73;80.84
62011;BME280;47967;51.756;10.174;2023-01-28T20:57:42;101062.94;;;-3.70;80.40
62011;BME280;47967;51.756;10.174;2023-01-28T21:01:45;101063.56;;;-3.82;80.53
62011;BME280;47967;51.756;10.174;2023-01-28T21:05:48;101052.91;;;-3.98;80.44
62011;BME280;47967;51.756;10.174;2023-01-28T21:09:52;101049.78;;;-4.07;80.63
62011;BME280;47967;51.756;10.174;2023-01-28T21:13:55;101058.44;;;-4.22;80.66
62011;BME280;47967;51.756;10.174;2023-01-28T21:17:58;101067.56;;;-4.29;80.87
62011;BME280;47967;51.756;10.174;2023-01-28T21:22:01;101053.59;;;-4.31;80.85
62011;BME280;47967;51.756;10.174;2023-01-28T21:26:05;101061.06;;;-4.41;80.53
62011;BME280;47967;51.756;10.174;2023-01-28T21:30:09;101069.34;;;-4.49;81.03
62011;BME280;47967;51.756;10.174;2023-01-28T21:34:11;101071.97;;;-4.49;81.17
62011;BME280;47967;51.756;10.174;2023-01-28T21:38:14;101067.13;;;-4.58;81.43
62011;BME280;47967;51.756;10.174;2023-01-28T21:42:18;101059.22;;;-4.58;81.78
62011;BME280;47967;51.756;10.174;2023-01-28T21:46:22;101062.66;;;-4.56;81.75
62011;BME280;47967;51.756;10.174;2023-01-28T21:50:25;101062.06;;;-4.63;81.85
62011;BME280;47967;51.756;10.174;2023-01-28T21:54:28;101060.28;;;-4.62;82.31
62011;BME280;47967;51.756;10.174;2023-01-28T21:58:33;101062.06;;;-4.63;82.09
